Search for airport 
image banner adimage banner adimage banner ad
image banner ad

22D - Bandel

Located in Eighty Four, United States

ICAO - 22D, IATA -

Data provided by Airmate  

General information

Coordinates: N40°7'50" W80°5'46"
Elevation is 1210 feet MSL.
Magnetic variation is -07° East
View others Airports in Pennsylvania

Operational data

Special qualification required
Current time UTC:
Current local time:
Weather at : KAFJ - Washington County ( 16 km )
METAR: KAFJ 182256Z AUTO 00000KT 10SM CLR 25/05 A3031 RMK AO2 SLP260 T02500050
View NOTAMs / SUP AIP / TFR affecting this airport [VIEW]
Communications frequencies: [VIEW]

Runways:

RWY identifierQFULength (ft)Width (ft)SurfaceLDA (ft)
01358°2260100OTHER
19178°2260100OTHER

Airport contact information

Address: Eighty Four United States

Satellite view of 22D